Dorrance, Kansas
Current Conditions -  °F | °C
As of 5:53 AM on Thursday 23 Oct 2014 (Local Time) from KRSL Reporting Station
Moderate Fog Moderate Fog  
Wind Chill: 54°   Ceiling: Unl
Heat Index: 54°   Visibility: 0.25mi
Dew Point: 54°   Wind: 6mph
Humidity: 100%   Direction: 200°SSW
Pressure: 30.05"   Gusts: NA
Location:  38.85°N, 98.59°W
Report Text: KRSL 231053Z AUTO 20005KT 1/4SM FG CLR 12/12 A3005 RMK AO2 SLP171 T01220122
Loading
Personal Weather Stations






























Interactive Weather Map
Tropical Storm Tracking
New forecast layout! Learn more

10-Day Weather Forecast

Advertisements
Track Severe Weather on mobile